Flight Track Log - Related Links

Times and Time Zones

All times are in EDT time to prevent confusion due to time zone crossing. See the SWA1423 flight status page for this flight to view local times or setup timezone preferences in your user account.

Time Position Orientation Groundspeed Altitude Reporting Facility
EDT Latitude Longitude Course Direction KTS MPH feet Rate Location/Type
Sat 08:38:12 PM 41.7667 -87.7833 270° West 145 167 2,200  Level Chicago TRACON
Sat 08:39:06 PM 41.7667 -87.8500 270° West 209 241 4,000 1,069 Climbing Chicago TRACON
Sat 08:39:53 PM 41.7669 -87.8986 270° West 222 255 4,000  Level Chicago Center
Sat 08:40:54 PM 41.7769 -87.9847 279° West 230 265 4,000 541 Level Chicago Center
Sat 08:41:55 PM 41.7872 -88.0703 279° West 233 268 5,100 2,829 Climbing Chicago Center
Sat 08:42:57 PM 41.7967 -88.1728 277° West 233 268 9,800 3,756 Climbing Chicago Center
Sat 08:43:58 PM 41.7883 -88.2608 263° West 241 277 12,800 2,951 Climbing Chicago Center
Sat 08:44:59 PM 41.8075 -88.3478 287° West 261 300 15,800 2,902 Climbing Chicago Center
Sat 08:46:00 PM 41.8608 -88.4225 314° West 277 319 18,700 2,508 Climbing Chicago Center
Sat 08:47:01 PM 41.9144 -88.4992 313° West 283 326 20,900 1,805 Climbing Chicago Center
Sat 08:48:03 PM 41.9761 -88.5917 312° West 330 380 22,400 1,805 Climbing Chicago Center
Sat 08:49:04 PM 42.0400 -88.6867 312° West 343 395 24,600 1,967 Climbing Chicago Center
Sat 08:50:05 PM 42.0831 -88.8019 297° West 362 417 26,400 1,770 Climbing Chicago Center
Sat 08:51:06 PM 42.0906 -88.9578 274° West 373 429 28,200 1,918 Climbing Chicago Center
Sat 08:52:07 PM 42.0992 -89.0969 275° West 372 428 30,300 1,805 Climbing Chicago Center
Sat 08:53:09 PM 42.1069 -89.2364 274° West 373 429 31,900 1,512 Climbing Chicago Center
Sat 08:54:10 PM 42.1136 -89.3742 274° West 371 427 33,400 1,033 Climbing Chicago Center
Sat 08:55:11 PM 42.1231 -89.5136 275° West 374 430 34,000 934 Climbing Chicago Center
Sat 08:56:12 PM 42.1422 -89.6775 279° West 380 437 35,300 976 Climbing Chicago Center
Sat 08:57:14 PM 42.1592 -89.8172 279° West 378 435 36,000 732 Climbing Chicago Center
Sat 08:58:15 PM 42.1750 -89.9483 279° West 382 440 36,800 885 Climbing Chicago Center
Sat 08:59:16 PM 42.1933 -90.0928 280° West 391 450 37,800 590 Climbing Chicago Center
Sat 09:00:17 PM 42.2106 -90.2361 279° West 391 450 38,000 98 Climbing Chicago Center
Sat 09:01:19 PM 42.2269 -90.3825 279° West 395 455 38,000  Level Chicago Center
Sat 09:02:20 PM 42.2478 -90.5572 279° West 396 456 38,000  Level Chicago Center
Sat 09:03:22 PM 42.2633 -90.7019 278° West 394 453 38,000  Level Chicago Center
Sat 09:04:23 PM 42.2806 -90.8458 279° West 392 451 38,000  Level Chicago Center
Sat 09:05:24 PM 42.2956 -90.9906 278° West 391 450 38,000  Level Chicago Center
Sat 09:06:25 PM 42.3111 -91.1358 278° West 393 452 38,000  Level Chicago Center
Sat 09:07:27 PM 42.3275 -91.2792 279° West 388 447 38,000  Level Chicago Center
Sat 09:08:28 PM 42.3417 -91.4247 278° West 391 450 38,000  Level Chicago Center
Sat 09:09:29 PM 42.3583 -91.5708 279° West 392 451 38,000  Level Chicago Center
Sat 09:10:31 PM 42.3731 -91.7167 278° West 390 449 38,000  Level Chicago Center
Sat 09:11:32 PM 42.3908 -91.8931 278° West 393 452 38,000  Level Chicago Center
Sat 09:12:33 PM 42.4064 -92.0431 278° West 399 459 38,000  Level Chicago Center
Sat 09:13:35 PM 42.4217 -92.1919 278° West 400 460 38,000  Level Chicago Center
Sat 09:14:08 PM 42.4269 -92.2536 277° West 400 460 38,000  Level Minneapolis Center
Sat 09:15:09 PM 42.4450 -92.4339 278° West 404 465 38,000  Level Minneapolis Center
Sat 09:16:10 PM 42.4592 -92.5844 277° West 405 466 38,000  Level Minneapolis Center
Sat 09:17:11 PM 42.4722 -92.7336 277° West 402 463 38,000  Level Minneapolis Center
Sat 09:18:13 PM 42.4708 -92.8828 269° West 396 456 38,000  Level Minneapolis Center
Sat 09:19:14 PM 42.4686 -93.0356 269° West 405 466 38,000  Level Minneapolis Center
Sat 09:20:15 PM 42.4675 -93.1878 269° West 407 468 38,000  Level Minneapolis Center
Sat 09:21:17 PM 42.4653 -93.3408 269° West 408 470 38,000  Level Minneapolis Center
Sat 09:22:17 PM 42.4644 -93.4939 270° West 409 471 38,000  Level Minneapolis Center
Sat 09:23:18 PM 42.4617 -93.6783 269° West 410 472 38,000  Level Minneapolis Center
Sat 09:24:19 PM 42.4592 -93.8314 269° West 409 471 38,000  Level Minneapolis Center
Sat 09:25:20 PM 42.4567 -93.9853 269° West 411 473 38,000  Level Minneapolis Center
Sat 09:26:21 PM 42.4547 -94.1369 269° West 408 470 38,000  Level Minneapolis Center
Sat 09:27:22 PM 42.4531 -94.2822 269° West 407 468 38,000  Level Minneapolis Center
Sat 09:28:23 PM 42.4506 -94.4328 269° West 402 463 38,000  Level Minneapolis Center
Sat 09:29:24 PM 42.4472 -94.5822 268° West 399 459 38,000  Level Minneapolis Center
Sat 09:30:25 PM 42.4408 -94.7283 267° West 393 452 38,000  Level Minneapolis Center
Sat 09:31:26 PM 42.4369 -94.9050 268° West 392 451 38,000  Level Minneapolis Center
Sat 09:32:27 PM 42.4336 -95.0519 268° West 391 450 38,000  Level Minneapolis Center
Sat 09:33:28 PM 42.4289 -95.1986 268° West 391 450 38,000  Level Minneapolis Center
Sat 09:34:29 PM 42.4247 -95.3442 268° West 389 448 38,000  Level Minneapolis Center
Sat 09:35:30 PM 42.4200 -95.4903 268° West 388 447 38,000  Level Minneapolis Center
Sat 09:36:30 PM 42.4156 -95.6367 268° West 390 449 38,000  Level Minneapolis Center
Sat 09:37:31 PM 42.4106 -95.7844 267° West 393 452 38,000  Level Minneapolis Center
Sat 09:38:32 PM 42.4058 -95.9297 268° West 389 448 38,000  Level Minneapolis Center
Sat 09:39:33 PM 42.4008 -96.0731 267° West 386 444 38,000  Level Minneapolis Center
Sat 09:40:34 PM 42.3958 -96.2156 267° West 382 440 38,000  Level Minneapolis Center
Sat 09:41:35 PM 42.3906 -96.3592 267° West 383 441 38,000  Level Minneapolis Center
Sat 09:42:35 PM 42.3847 -96.5056 267° West 387 445 38,000  Level Minneapolis Center
Sat 09:43:36 PM 42.3789 -96.6503 267° West 388 447 38,000  Level Minneapolis Center
Sat 09:44:37 PM 42.3711 -96.8233 267° West 387 445 38,000  Level Minneapolis Center
Sat 09:45:38 PM 42.3650 -96.9675 267° West 387 445 38,000  Level Minneapolis Center
Sat 09:46:39 PM 42.3578 -97.1131 266° West 387 445 38,000  Level Minneapolis Center
Sat 09:47:39 PM 42.3519 -97.2589 267° West 388 447 38,000  Level Minneapolis Center
Sat 09:48:40 PM 42.3444 -97.4033 266° West 388 447 38,000  Level Minneapolis Center
Sat 09:49:41 PM 42.3381 -97.5492 267° West 389 448 38,000  Level Minneapolis Center
Sat 09:50:42 PM 42.3300 -97.6956 266° West 391 450 38,000  Level Minneapolis Center
Sat 09:51:42 PM 42.3225 -97.8444 266° West 392 451 38,000  Level Minneapolis Center
Sat 09:52:43 PM 42.3161 -97.9944 267° West 398 458 38,000  Level Minneapolis Center
Sat 09:53:44 PM 42.3072 -98.1428 265° West 398 458 38,000  Level Minneapolis Center
Sat 09:54:45 PM 42.3000 -98.2936 266° West 402 463 38,000  Level Minneapolis Center
Sat 09:55:45 PM 42.2908 -98.4422 265° West 399 459 38,000  Level Minneapolis Center
Sat 09:56:46 PM 42.2825 -98.5928 266° West 402 463 38,000  Level Minneapolis Center
Sat 09:57:47 PM 42.2736 -98.7422 265° West 401 461 38,000  Level Minneapolis Center
Sat 09:58:48 PM 42.2644 -98.8911 265° West 400 460 38,000  Level Minneapolis Center
Sat 09:59:49 PM 42.2561 -99.0417 266° West 403 464 38,000  Level Minneapolis Center
Sat 10:00:49 PM 42.2453 -99.2222 265° West 404 465 38,000  Level Minneapolis Center
Sat 10:01:50 PM 42.2342 -99.3722 264° West 404 465 38,000  Level Minneapolis Center
Sat 10:02:24 PM 42.2308 -99.4331 266° West 402 463 38,000  Level Denver Center
Sat 10:03:25 PM 42.2206 -99.5831 265° West 402 463 38,000  Level Denver Center
Sat 10:04:26 PM 42.2086 -99.7608 265° West 406 467 38,000  Level Denver Center
Sat 10:05:27 PM 42.1989 -99.9039 265° West 404 465 38,000  Level Denver Center
Sat 10:06:28 PM 42.1869 -100.0728 265° West 406 467 38,000  Level Denver Center
Sat 10:07:29 PM 42.1769 -100.2167 265° West 405 466 38,000  Level Denver Center
Sat 10:08:31 PM 42.1661 -100.3628 264° West 409 471 38,000  Level Denver Center
Sat 10:09:32 PM 42.1539 -100.5311 264° West 406 467 38,000  Level Denver Center
Sat 10:10:33 PM 42.1419 -100.6769 264° West 409 471 38,000  Level Denver Center
Sat 10:11:34 PM 42.1303 -100.8442 265° West 404 465 38,000  Level Denver Center
Sat 10:12:35 PM 42.1183 -100.9858 264° West 399 459 38,000  Level Denver Center
Sat 10:13:36 PM 42.1069 -101.1286 264° West 401 461 38,000  Level Denver Center
Sat 10:14:37 PM 42.0947 -101.2922 264° West 396 456 38,000  Level Denver Center
Sat 10:15:38 PM 42.0819 -101.4333 263° West 398 458 38,000  Level Denver Center
Sat 10:16:39 PM 42.0708 -101.5747 264° West 399 459 38,000  Level Denver Center
Sat 10:17:40 PM 42.0572 -101.7378 264° West 394 453 38,000  Level Denver Center
Sat 10:18:41 PM 42.0447 -101.8808 263° West 402 463 38,000  Level Denver Center
Sat 10:19:43 PM 42.0303 -102.0442 263° West 396 456 38,000  Level Denver Center
Sat 10:20:44 PM 42.0186 -102.1839 264° West 396 456 38,000  Level Denver Center
Sat 10:21:45 PM 42.0050 -102.3236 263° West 395 455 38,000  Level Denver Center
Sat 10:22:46 PM 41.9900 -102.4842 263° West 389 448 38,000  Level Denver Center
Sat 10:23:47 PM 41.9778 -102.6217 263° West 387 445 38,000  Level Denver Center
Sat 10:24:48 PM 41.9647 -102.7583 263° West 386 444 38,000  Level Denver Center
Sat 10:25:49 PM 41.9489 -102.9183 262° West 386 444 38,000  Level Denver Center
Sat 10:26:49 PM 41.9350 -103.0569 262° West 390 449 38,000  Level Denver Center
Sat 10:27:50 PM 41.9217 -103.1944 263° West 388 447 38,000  Level Denver Center
Sat 10:28:51 PM 41.9056 -103.3564 262° West 391 450 38,000  Level Denver Center
Sat 10:29:52 PM 41.8928 -103.4958 263° West 393 452 38,000  Level Denver Center
Sat 10:30:53 PM 41.8883 -103.6364 268° West 393 452 38,000  Level Denver Center
Sat 10:31:54 PM 41.8839 -103.8019 268° West 396 456 38,000  Level Denver Center
Sat 10:32:55 PM 41.8783 -103.9450 267° West 399 459 38,000  Level Denver Center
Sat 10:33:56 PM 41.8731 -104.0869 267° West 398 458 38,000  Level Denver Center
Sat 10:34:57 PM 41.8675 -104.2511 267° West 394 453 38,000  Level Denver Center
Sat 10:35:58 PM 41.8619 -104.3900 267° West 389 448 38,000  Level Denver Center
Sat 10:36:59 PM 41.8547 -104.5522 267° West 389 448 38,000  Level Denver Center
Sat 10:38:00 PM 41.8500 -104.6936 267° West 393 452 38,000  Level Denver Center
Sat 10:39:01 PM 41.8436 -104.8372 267° West 399 459 38,000  Level Denver Center
Sat 10:40:02 PM 41.8381 -104.9797 267° West 400 460 38,000  Level Denver Center
Sat 10:41:03 PM 41.8306 -105.1444 267° West 398 458 38,000  Level Denver Center
Sat 10:42:04 PM 41.8253 -105.2817 267° West 388 447 38,000  Level Denver Center
Sat 10:43:05 PM 41.8178 -105.4133 266° West 377 434 38,000  Level Denver Center
Sat 10:44:06 PM 41.8100 -105.5681 266° West 371 427 38,000  Level Denver Center
Sat 10:45:07 PM 41.8031 -105.7025 266° West 375 432 38,000  Level Denver Center
Sat 10:46:07 PM 41.7967 -105.8608 267° West 381 438 38,000  Level Denver Center
Sat 10:47:08 PM 41.7892 -105.9967 266° West 382 440 38,000  Level Denver Center
Sat 10:48:09 PM 41.7819 -106.1317 266° West 380 437 38,000  Level Denver Center
Sat 10:49:10 PM 41.7731 -106.2881 266° West 376 433 38,000  Level Denver Center
Sat 10:50:11 PM 41.7664 -106.4236 266° West 381 438 38,000  Level Denver Center
Sat 10:51:12 PM 41.7569 -106.5678 265° West 379 436 38,000  Level Denver Center
Sat 10:52:13 PM 41.7503 -106.7036 266° West 382 440 38,000  Level Denver Center
Sat 10:53:14 PM 41.7397 -106.8603 265° West 380 437 38,000  Level Denver Center
Sat 10:54:15 PM 41.7322 -106.9961 266° West 383 441 38,000  Level Denver Center
Sat 10:55:16 PM 41.7239 -107.1319 265° West 383 441 38,000  Level Denver Center
Sat 10:56:17 PM 41.7136 -107.2944 265° West 392 451 38,000  Level Denver Center
Sat 10:57:18 PM 41.7042 -107.4347 265° West 397 457 38,000  Level Denver Center
Sat 10:58:19 PM 41.6950 -107.5761 265° West 397 457 38,000  Level Denver Center
Sat 10:59:20 PM 41.6839 -107.7406 265° West 399 459 38,000  Level Denver Center
Sat 11:00:20 PM 41.6733 -107.8839 264° West 404 465 38,000  Level Denver Center
Sat 11:01:21 PM 41.6647 -108.0261 265° West 402 463 38,000  Level Denver Center
Sat 11:02:22 PM 41.6522 -108.1914 264° West 401 461 38,000  Level Denver Center
Sat 11:03:00 PM 41.6453 -108.2861 264° West 399 459 38,000  Level Salt Lake Center
Sat 11:04:01 PM 41.6356 -108.4258 265° West 395 455 38,000  Level Salt Lake Center
Sat 11:05:02 PM 41.6244 -108.5681 264° West 401 461 38,000  Level Salt Lake Center
Sat 11:06:03 PM 41.6128 -108.7314 265° West 399 459 38,000  Level Salt Lake Center
Sat 11:07:04 PM 41.6011 -108.8728 264° West 402 463 38,000  Level Salt Lake Center
Sat 11:08:05 PM 41.5825 -109.0353 261° West 403 464 38,000  Level Salt Lake Center
Sat 11:09:06 PM 41.5381 -109.1633 245° Southwest 405 466 38,000  Level Salt Lake Center
Sat 11:10:07 PM 41.4850 -109.3119 245° Southwest 406 467 38,000  Level Salt Lake Center
Sat 11:11:08 PM 41.4392 -109.4419 245° Southwest 409 471 38,000  Level Salt Lake Center
Sat 11:12:09 PM 41.3919 -109.5706 244° Southwest 407 468 38,000  Level Salt Lake Center
Sat 11:13:10 PM 41.3381 -109.7214 245° Southwest 405 466 38,000  Level Salt Lake Center
Sat 11:14:10 PM 41.2908 -109.8519 244° Southwest 408 470 38,000  Level Salt Lake Center
Sat 11:15:11 PM 41.2431 -109.9831 244° Southwest 413 475 38,000  Level Salt Lake Center
Sat 11:16:12 PM 41.1864 -110.1372 244° Southwest 416 479 38,000  Level Salt Lake Center
Sat 11:17:13 PM 41.1381 -110.2689 244° Southwest 415 478 38,000  Level Salt Lake Center
Sat 11:18:14 PM 41.0828 -110.4206 244° Southwest 410 472 38,000  Level Salt Lake Center
Sat 11:19:15 PM 41.0339 -110.5503 243° Southwest 411 473 38,000  Level Salt Lake Center
Sat 11:20:16 PM 40.9811 -110.6953 244° Southwest 411 473 38,000  Level Salt Lake Center
Sat 11:21:16 PM 40.9317 -110.8264 244° Southwest 401 461 38,000  Level Salt Lake Center
Sat 11:22:17 PM 40.8836 -110.9569 244° Southwest 396 456 38,000  Level Salt Lake Center
Sat 11:23:18 PM 40.8342 -111.0889 244° Southwest 400 460 38,000  Level Salt Lake Center
Sat 11:24:19 PM 40.7856 -111.2192 244° Southwest 397 457 38,000  Level Salt Lake Center
Sat 11:25:20 PM 40.7358 -111.3486 243° Southwest 394 453 38,000  Level Salt Lake Center
Sat 11:26:20 PM 40.6861 -111.4778 243° Southwest 393 452 38,000  Level Salt Lake Center
Sat 11:27:21 PM 40.6364 -111.6058 243° Southwest 390 449 38,000  Level Salt Lake Center
Sat 11:28:22 PM 40.5881 -111.7333 244° Southwest 387 445 38,000 246 Level Salt Lake Center
Sat 11:29:23 PM 40.5392 -111.8569 243° Southwest 381 438 38,500 645 Climbing Salt Lake Center
Sat 11:30:23 PM 40.4892 -111.9853 243° Southwest 391 450 39,300 744 Climbing Salt Lake Center
Sat 11:31:24 PM 40.4389 -112.1136 243° Southwest 395 455 40,000 344 Climbing Salt Lake Center
Sat 11:32:25 PM 40.3878 -112.2422 242° Southwest 397 457 40,000  Level Salt Lake Center
Sat 11:33:26 PM 40.3378 -112.3722 243° Southwest 399 459 40,000  Level Salt Lake Center
Sat 11:34:27 PM 40.2861 -112.5011 242° Southwest 400 460 40,000  Level Salt Lake Center
Sat 11:35:27 PM 40.2353 -112.6281 242° Southwest 394 453 40,000  Level Salt Lake Center
Sat 11:36:28 PM 40.1864 -112.7519 243° Southwest 384 442 40,000  Level Salt Lake Center
Sat 11:37:29 PM 40.1369 -112.8742 242° Southwest 379 436 40,000  Level Salt Lake Center
Sat 11:38:30 PM 40.0892 -112.9961 243° Southwest 377 434 40,000  Level Salt Lake Center
Sat 11:39:30 PM 40.0375 -113.1178 241° Southwest 382 440 40,000  Level Salt Lake Center
Sat 11:40:31 PM 39.9867 -113.2422 242° Southwest 389 448 40,000  Level Salt Lake Center
Sat 11:41:32 PM 39.9256 -113.3931 242° Southwest 393 452 40,000 -393 Level Salt Lake Center
Sat 11:42:33 PM 39.8747 -113.5172 242° Southwest 390 449 39,200 -843 Descending Salt Lake Center
Sat 11:43:33 PM 39.8258 -113.6364 242° Southwest 378 435 38,300 -893 Descending Salt Lake Center
Sat 11:44:34 PM 39.7797 -113.7500 242° Southwest 359 413 37,400 -885 Descending Salt Lake Center
Sat 11:45:35 PM 39.7325 -113.8614 241° Southwest 360 414 36,500 -689 Descending Salt Lake Center
Sat 11:46:36 PM 39.6836 -113.9789 242° Southwest 369 425 36,000 -248 Descending Salt Lake Center
Sat 11:47:36 PM 39.6347 -114.0967 242° Southwest 371 427 36,000  Level Salt Lake Center
Sat 11:48:37 PM 39.5869 -114.2117 242° Southwest 367 422 36,000  Level Salt Lake Center
Sat 11:49:38 PM 39.5367 -114.3292 241° Southwest 373 429 36,000  Level Salt Lake Center
Sat 11:50:39 PM 39.4847 -114.4550 242° Southwest 371 427 36,000  Level Salt Lake Center
Sat 11:51:39 PM 39.4344 -114.5706 241° Southwest 382 440 36,000  Level Salt Lake Center
Sat 11:52:40 PM 39.3756 -114.7050 240° Southwest 384 442 36,000  Level Salt Lake Center
Sat 11:53:41 PM 39.3281 -114.8183 242° Southwest 378 435 36,000  Level Salt Lake Center
Sat 11:54:42 PM 39.2797 -114.9311 241° Southwest 375 432 36,000  Level Salt Lake Center
Sat 11:55:42 PM 39.2211 -115.0678 241° Southwest 385 443 36,000  Level Salt Lake Center
Sat 11:56:43 PM 39.1706 -115.1861 241° Southwest 391 450 36,000  Level Salt Lake Center
Sat 11:57:44 PM 39.1153 -115.3133 241° Southwest 394 453 36,000  Level Salt Lake Center
Sat 11:58:45 PM 39.0633 -115.4286 240° Southwest 398 458 36,000  Level Salt Lake Center
Sat 11:59:46 PM 39.0111 -115.5508 241° Southwest 392 451 36,000  Level Salt Lake Center
Sun 12:00:46 AM 38.9678 -115.6492 240° Southwest 394 453 36,000  Level Salt Lake Center
Sun 12:01:47 AM 38.9022 -115.7975 240° Southwest 399 459 36,000  Level Salt Lake Center
Sun 12:02:48 AM 38.8475 -115.9214 240° Southwest 398 458 36,000  Level Salt Lake Center
Sun 12:03:49 AM 38.7931 -116.0453 241° Southwest 397 457 36,000  Level Salt Lake Center
Sun 12:04:50 AM 38.7381 -116.1686 240° Southwest 399 459 36,000  Level Salt Lake Center
Sun 12:05:50 AM 38.6719 -116.3153 240° Southwest 396 456 36,000  Level Salt Lake Center
Sun 12:06:51 AM 38.6172 -116.4369 240° Southwest 395 455 36,000  Level Salt Lake Center
Sun 12:07:52 AM 38.5622 -116.5594 240° Southwest 398 458 36,000  Level Salt Lake Center
Sun 12:08:52 AM 38.5064 -116.6817 240° Southwest 399 459 36,000  Level Salt Lake Center
Sun 12:09:18 AM 38.4839 -116.7297 239° Southwest 398 458 36,000  Level Oakland Center
Sun 12:10:19 AM 38.4219 -116.8489 236° Southwest 401 461 36,000  Level Oakland Center
Sun 12:11:19 AM 38.3600 -116.9686 237° Southwest 405 466 36,000  Level Oakland Center
Sun 12:11:55 AM 38.3222 -117.0400 236° Southwest 406 467 36,000  Level Salt Lake Center
Sun 12:12:56 AM 38.2614 -117.1572 237° Southwest 403 464 36,000  Level Salt Lake Center
Sun 12:13:21 AM 38.2314 -117.2147 236° Southwest 404 465 36,000  Level Oakland Center
Sun 12:14:21 AM 38.1694 -117.3333 236° Southwest 402 463 36,000  Level Oakland Center
Sun 12:15:22 AM 38.1161 -117.4344 236° Southwest 402 463 36,000  Level Oakland Center
Sun 12:16:23 AM 38.0403 -117.5772 236° Southwest 408 470 36,000  Level Oakland Center
Sun 12:17:24 AM 37.9758 -117.6989 236° Southwest 414 476 36,000 -298 Level Oakland Center
Sun 12:18:24 AM 37.9106 -117.8222 236° Southwest 419 482 35,400 -744 Descending Oakland Center
Sun 12:19:25 AM 37.8450 -117.9425 235° Southwest 418 481 34,500 -934 Descending Oakland Center
Sun 12:20:26 AM 37.7789 -118.0664 236° Southwest 424 488 33,500 -992 Descending Oakland Center
Sun 12:21:26 AM 37.7142 -118.1886 236° Southwest 420 483 32,500 -942 Descending Oakland Center
Sun 12:22:27 AM 37.6458 -118.3142 236° Southwest 432 497 31,600 -934 Descending Oakland Center
Sun 12:23:28 AM 37.5783 -118.4403 236° Southwest 432 497 30,600 -787 Descending Oakland Center
Sun 12:24:29 AM 37.5111 -118.5642 236° Southwest 429 494 30,000 -298 Descending Oakland Center
Sun 12:25:29 AM 37.4422 -118.6894 235° Southwest 434 499 30,000  Level Oakland Center
Sun 12:26:30 AM 37.3839 -118.8342 243° Southwest 447 514 30,000  Level Oakland Center
Sun 12:27:31 AM 37.3692 -118.9800 263° West 429 494 30,000  Level Oakland Center
Sun 12:28:31 AM 37.3556 -119.1219 263° West 427 491 30,000 -446 Level Oakland Center
Sun 12:29:32 AM 37.3431 -119.2719 264° West 447 514 29,100 -984 Descending Oakland Center
Sun 12:30:33 AM 37.3250 -119.4231 261° West 424 488 28,000 -1,033 Descending Oakland Center
Sun 12:31:34 AM 37.3103 -119.5631 263° West 417 480 27,000 -1,041 Descending Oakland Center
Sun 12:32:34 AM 37.2936 -119.7125 262° West 410 472 25,900 -992 Descending Oakland Center
Sun 12:33:35 AM 37.2797 -119.8433 262° West 407 468 25,000 -934 Descending Oakland Center
Sun 12:34:36 AM 37.2642 -119.9814 262° West 401 461 24,000 -992 Descending Oakland Center
Sun 12:35:36 AM 37.2489 -120.1167 262° West 392 451 23,000 -1,140 Descending Oakland Center
Sun 12:36:37 AM 37.2339 -120.2492 262° West 412 474 21,700 -1,721 Descending Oakland Center
Sun 12:37:38 AM 37.2194 -120.3742 262° West 369 425 19,500 -2,370 Descending Oakland Center
Sun 12:38:36 AM 37.2000 -120.5000 259° West 407 468 17,000 -2,143 Descending Northern Cal TRACON
Sun 12:39:30 AM 37.1833 -120.6000 258° West 356 410 15,500 -1,263 Descending Northern Cal TRACON
Sun 12:40:30 AM 37.1500 -120.7167 250° West 357 411 14,600 -1,000 Descending Northern Cal TRACON
Sun 12:41:30 AM 37.1167 -120.8500 253° West 359 413 13,500 -1,000 Descending Northern Cal TRACON
Sun 12:42:24 AM 37.1000 -120.9500 258° West 357 411 12,700 -845 Descending Northern Cal TRACON
Sun 12:42:41 AM 37.0978 -120.9656 260° West 344 396 12,500 -923 Descending Oakland Center
Sun 12:43:42 AM 37.0864 -121.0842 263° West 342 394 11,500 -984 Descending Oakland Center
Sun 12:44:43 AM 37.0758 -121.2089 264° West 340 391 10,500 -793 Descending Oakland Center
Sun 12:45:43 AM 37.0667 -121.3253 264° West 338 389 9,900 -496 Descending Oakland Center
Sun 12:46:44 AM 37.0561 -121.4331 263° West 324 373 9,500 -1,082 Descending Oakland Center
Sun 12:47:45 AM 37.0500 -121.5261 265° West 282 325 7,700 -1,636 Descending Oakland Center
Sun 12:48:45 AM 37.0767 -121.6089 292° West 284 327 6,200 -1,140 Descending Oakland Center
Sun 12:49:46 AM 37.1244 -121.6756 312° West 268 308 5,400 -649 Descending Oakland Center
Sun 12:50:36 AM 37.1667 -121.7167 322° Northwest 201 231 5,000 -865 Descending Northern Cal TRACON
Sun 12:51:30 AM 37.2000 -121.7667 310° West 185 213 3,900 -1,000 Descending Northern Cal TRACON
Sun 12:51:48 AM 37.2078 -121.7647 11° North 205 236 3,800 -923 Descending Oakland Center
Sun 12:52:48 AM 37.2533 -121.8122 320° Northwest 186 214 2,700 -1,041 Descending Oakland Center
Sun 12:53:49 AM 37.2911 -121.8531 319° Northwest 182 209 1,700 -885 Descending Oakland Center
Sun 12:54:50 AM 37.3208 -121.8861 319° Northwest 156 180 900 -744 Descending Oakland Center
Sun 12:55:50 AM 37.3472 -121.9133 321° Northwest 134 154 200 -700 Descending Oakland Center
Sun 12:57:00 AM 37.3500 -121.9167 North  Level FlightAware Approximate
Sun 01:04:00 AM 37.3627 -121.9291 North  Level Estimated

Login

Don't have an account? Register now (free) for customized features, flight alerts, and more!